Time;durP1;ratioP1;P1;durP2;ratioP2;P2;SDS_P1;SDS_P2;PMS_P1;PMS_P2;Temp;Humidity;BMP_temperature;BMP_pressure;BME280_temperature;BME280_humidity;BME280_pressure;Samples;Min_cycle;Max_cycle;Signal;HPM_P1;HPM_P2
2019/09/03 00:02:03;;;;;;;6.6;3.9;;;;;;;;;;;;;
2019/09/03 00:04:30;;;;;;;5.4;3.7;;;;;;;;;;;;;
2019/09/03 00:07:02;;;;;;;9.3;4;;;;;;;;;;;;;
2019/09/03 00:09:28;;;;;;;6.3;3.6;;;;;;;;;;;;;
2019/09/03 00:11:50;;;;;;;5.6;3.7;;;;;;;;;;;;;
2019/09/03 00:14:14;;;;;;;6.1;4;;;;;;;;;;;;;
2019/09/03 00:16:38;;;;;;;7.3;4.4;;;;;;;;;;;;;
2019/09/03 00:19:08;;;;;;;8.2;4.1;;;;;;;;;;;;;
2019/09/03 00:21:33;;;;;;;6.2;4.6;;;;;;;;;;;;;
2019/09/03 00:24:01;;;;;;;7.5;4.9;;;;;;;;;;;;;
2019/09/03 00:26:27;;;;;;;7;4.3;;;;;;;;;;;;;
2019/09/03 00:28:50;;;;;;;7.1;4.6;;;;;;;;;;;;;
2019/09/03 00:31:24;;;;;;;7.5;4;;;;;;;;;;;;;
2019/09/03 00:33:39;;;;;;;6.5;4.2;;;;;;;;;;;;;
2019/09/03 00:36:08;;;;;;;5.9;4.1;;;;;;;;;;;;;
2019/09/03 00:38:45;;;;;;;6.3;4.2;;;;;;;;;;;;;
2019/09/03 00:40:55;;;;;;;6.2;4;;;;;;;;;;;;;
2019/09/03 00:43:20;;;;;;;5.8;4;;;;;;;;;;;;;
2019/09/03 00:45:48;;;;;;;7.9;4.1;;;;;;;;;;;;;
2019/09/03 00:48:11;;;;;;;5.1;3.8;;;;;;;;;;;;;
2019/09/03 00:50:35;;;;;;;6.6;3.7;;;;;;;;;;;;;
2019/09/03 00:53:06;;;;;;;7.9;4.3;;;;;;;;;;;;;
2019/09/03 00:55:28;;;;;;;6;4;;;;;;;;;;;;;
2019/09/03 00:57:50;;;;;;;8.6;4.2;;;;;;;;;;;;;
2019/09/03 01:00:16;;;;;;;5;3.8;;;;;;;;;;;;;
2019/09/03 01:02:41;;;;;;;5.4;3.8;;;;;;;;;;;;;
2019/09/03 01:05:07;;;;;;;6;3.8;;;;;;;;;;;;;
2019/09/03 01:07:31;;;;;;;7.5;4.6;;;;;;;;;;;;;
2019/09/03 01:09:56;;;;;;;4.9;4.3;;;;;;;;;;;;;
2019/09/03 01:12:27;;;;;;;6.8;4.6;;;;;;;;;;;;;
2019/09/03 01:14:49;;;;;;;4.9;3.7;;;;;;;;;;;;;
2019/09/03 01:17:14;;;;;;;6.3;4.5;;;;;;;;;;;;;
2019/09/03 01:19:36;;;;;;;4.9;4.2;;;;;;;;;;;;;
2019/09/03 01:22:05;;;;;;;5.1;3.7;;;;;;;;;;;;;
2019/09/03 01:24:30;;;;;;;5.6;3.9;;;;;;;;;;;;;
2019/09/03 01:26:54;;;;;;;7.7;4.6;;;;;;;;;;;;;
2019/09/03 01:29:20;;;;;;;7.2;4.3;;;;;;;;;;;;;
2019/09/03 01:31:48;;;;;;;7.4;4.2;;;;;;;;;;;;;
2019/09/03 01:34:11;;;;;;;9.3;4.8;;;;;;;;;;;;;
2019/09/03 01:36:37;;;;;;;7.1;4.5;;;;;;;;;;;;;
2019/09/03 01:39:01;;;;;;;6.8;4.4;;;;;;;;;;;;;
2019/09/03 01:41:39;;;;;;;7.5;4.8;;;;;;;;;;;;;
2019/09/03 01:43:53;;;;;;;8.9;5.3;;;;;;;;;;;;;
2019/09/03 01:46:16;;;;;;;8;5.3;;;;;;;;;;;;;
2019/09/03 01:48:43;;;;;;;7.5;5;;;;;;;;;;;;;
2019/09/03 01:51:09;;;;;;;8;5.8;;;;;;;;;;;;;
2019/09/03 01:53:33;;;;;;;8.5;5.8;;;;;;;;;;;;;
2019/09/03 01:55:58;;;;;;;6.9;5.1;;;;;;;;;;;;;
2019/09/03 01:58:26;;;;;;;5.7;5.1;;;;;;;;;;;;;
2019/09/03 02:00:48;;;;;;;6.7;5.9;;;;;;;;;;;;;
2019/09/03 02:03:21;;;;;;;10.7;6.8;;;;;;;;;;;;;
2019/09/03 02:05:51;;;;;;;33.6;7.9;;;;;;;;;;;;;
2019/09/03 02:08:18;;;;;;;13.7;7.5;;;;;;;;;;;;;
2019/09/03 02:10:42;;;;;;;13.2;9.2;;;;;;;;;;;;;
2019/09/03 02:13:08;;;;;;;11.2;8.6;;;;;;;;;;;;;
2019/09/03 02:15:32;;;;;;;9;8.1;;;;;;;;;;;;;
2019/09/03 02:18:03;;;;;;;10.4;9.3;;;;;;;;;;;;;
2019/09/03 02:20:27;;;;;;;9.3;7.7;;;;;;;;;;;;;
2019/09/03 02:23:39;;;;;;;8.6;7.6;;;;;;;;;;;;;
2019/09/03 02:25:33;;;;;;;7.4;6.6;;;;;;;;;;;;;
2019/09/03 02:28:14;;;;;;;10.8;6.9;;;;;;;;;;;;;
2019/09/03 02:30:35;;;;;;;9.1;7.9;;;;;;;;;;;;;
2019/09/03 02:33:02;;;;;;;7.4;6.7;;;;;;;;;;;;;
2019/09/03 02:35:30;;;;;;;6.2;5.6;;;;;;;;;;;;;
2019/09/03 02:37:57;;;;;;;9.1;6.8;;;;;;;;;;;;;
2019/09/03 02:40:27;;;;;;;8;6.3;;;;;;;;;;;;;
2019/09/03 02:43:29;;;;;;;7.8;5.8;;;;;;;;;;;;;
2019/09/03 02:45:39;;;;;;;6.5;5.6;;;;;;;;;;;;;
2019/09/03 02:48:08;;;;;;;8.7;5.6;;;;;;;;;;;;;
2019/09/03 02:50:30;;;;;;;8.2;6;;;;;;;;;;;;;
2019/09/03 02:53:03;;;;;;;7.4;6.2;;;;;;;;;;;;;
2019/09/03 02:55:43;;;;;;;7;6.3;;;;;;;;;;;;;
2019/09/03 02:58:08;;;;;;;8.4;6.6;;;;;;;;;;;;;
2019/09/03 03:00:35;;;;;;;7.1;6.2;;;;;;;;;;;;;
2019/09/03 03:03:04;;;;;;;9;5.9;;;;;;;;;;;;;
2019/09/03 03:05:27;;;;;;;8.3;6;;;;;;;;;;;;;
2019/09/03 03:07:54;;;;;;;7.5;6.3;;;;;;;;;;;;;
2019/09/03 03:10:21;;;;;;;6.1;5.5;;;;;;;;;;;;;
2019/09/03 03:15:20;;;;;;;6.7;5.4;;;;;;;;;;;;;
2019/09/03 03:17:40;;;;;;;7.4;5.4;;;;;;;;;;;;;
2019/09/03 03:20:08;;;;;;;6.2;5.1;;;;;;;;;;;;;
2019/09/03 03:22:37;;;;;;;7.3;5;;;;;;;;;;;;;
2019/09/03 03:25:14;;;;;;;7.8;6.4;;;;;;;;;;;;;
2019/09/03 03:27:49;;;;;;;7.9;5.4;;;;;;;;;;;;;
2019/09/03 03:30:15;;;;;;;7.8;5.1;;;;;;;;;;;;;
2019/09/03 03:32:48;;;;;;;5.6;4.9;;;;;;;;;;;;;
2019/09/03 03:35:10;;;;;;;6.5;5.1;;;;;;;;;;;;;
2019/09/03 03:37:40;;;;;;;8;5.7;;;;;;;;;;;;;
2019/09/03 03:40:06;;;;;;;6.4;5.3;;;;;;;;;;;;;
2019/09/03 03:42:44;;;;;;;6.2;5.2;;;;;;;;;;;;;
2019/09/03 03:44:54;;;;;;;6.9;5;;;;;;;;;;;;;
2019/09/03 03:47:24;;;;;;;5.6;4.8;;;;;;;;;;;;;
2019/09/03 03:49:53;;;;;;;7.6;5.2;;;;;;;;;;;;;
2019/09/03 03:52:20;;;;;;;5.5;5;;;;;;;;;;;;;
2019/09/03 03:54:52;;;;;;;6.1;4.3;;;;;;;;;;;;;
2019/09/03 03:57:14;;;;;;;8.9;5.6;;;;;;;;;;;;;
2019/09/03 03:59:48;;;;;;;6.8;5.8;;;;;;;;;;;;;
2019/09/03 04:02:35;;;;;;;6.4;5.8;;;;;;;10.31;91.24707;946.394;;;;
2019/09/03 04:05:10;;;;;;;6.9;4.9;;;;;;;10.42;90.58496;946.399;;;;
2019/09/03 04:07:53;;;;;;;5.6;4.6;;;;;;;10.52;89.47559;946.4788;;;;
2019/09/03 04:10:20;;;;;;;7.4;5.3;;;;;;;10.44;89.69824;946.4378;;;;
2019/09/03 04:12:53;;;;;;;6.3;5;;;;;;;10.41;89.99023;946.4683;;;;
2019/09/03 04:15:17;;;;;;;6;4.6;;;;;;;10.5;89.67969;946.4863;;;;
2019/09/03 04:18:28;;;;;;;5.6;4.4;;;;;;;10.57;89.3252;946.4846;;;;
2019/09/03 04:21:04;;;;;;;5.7;5.1;;;;;;;10.62;90.22754;946.6063;;;;
2019/09/03 04:23:45;;;;;;;5.9;4.1;;;;;;;10.65;89.34375;946.5934;;;;
2019/09/03 04:26:28;;;;;;;7.2;4.3;;;;;;;10.56;88.95996;946.5602;;;;
2019/09/03 04:29:02;;;;;;;6.3;4.7;;;;;;;10.33;90.46387;946.5441;;;;
2019/09/03 04:31:54;;;;;;;4.9;4.4;;;;;;;10.31;90.20898;946.5691;;;;
2019/09/03 04:34:17;;;;;;;6.7;4.9;;;;;;;10.16;90.86328;946.565;;;;
2019/09/03 04:36:51;;;;;;;6.5;5.5;;;;;;;10.13;91.85938;946.5793;;;;
2019/09/03 04:39:34;;;;;;;5.8;5.2;;;;;;;10.23;91.45801;946.6031;;;;
2019/09/03 04:42:07;;;;;;;10;6;;;;;;;10.36;91.33887;946.6142;;;;
2019/09/03 04:44:48;;;;;;;6.4;5.7;;;;;;;10.41;91.23438;946.5864;;;;
2019/09/03 04:47:23;;;;;;;8.1;5.7;;;;;;;10.57;90.43457;946.6311;;;;
2019/09/03 04:49:45;;;;;;;8.6;5.8;;;;;;;10.7;90.37207;946.6344;;;;
2019/09/03 04:52:17;;;;;;;5.5;5;;;;;;;10.73;89.46484;946.6892;;;;
2019/09/03 04:54:53;;;;;;;7.5;5.2;;;;;;;10.49;89.83691;946.6485;;;;
2019/09/03 04:57:36;;;;;;;8.4;5.2;;;;;;;10.55;89.98535;946.6163;;;;
2019/09/03 05:00:17;;;;;;;6.2;4.9;;;;;;;10.62;89.51953;946.6445;;;;
2019/09/03 05:02:59;;;;;;;5.6;4.4;;;;;;;10.61;89.38184;946.6747;;;;
2019/09/03 05:06:12;;;;;;;7;4.5;;;;;;;10.74;89.39648;946.6607;;;;
2019/09/03 05:08:35;;;;;;;5.6;4.1;;;;;;;10.76;89.21777;946.6644;;;;
2019/09/03 05:11:04;;;;;;;5.7;4.5;;;;;;;10.69;89.43164;946.6964;;;;
2019/09/03 05:13:54;;;;;;;7;4.8;;;;;;;10.7;89.38965;946.6543;;;;
2019/09/03 05:16:24;;;;;;;7.2;5.2;;;;;;;10.68;89.6123;946.7;;;;
2019/09/03 05:18:46;;;;;;;5.4;4.7;;;;;;;10.79;89.60059;946.8187;;;;
2019/09/03 05:21:33;;;;;;;5.8;4.8;;;;;;;10.71;89.74316;946.8201;;;;
2019/09/03 05:24:14;;;;;;;5.8;4.7;;;;;;;10.87;89.32031;946.8845;;;;
2019/09/03 05:26:47;;;;;;;6.4;4.7;;;;;;;10.89;89.47266;946.9161;;;;
2019/09/03 05:29:28;;;;;;;6;4.4;;;;;;;10.78;89.22363;946.9078;;;;
2019/09/03 05:32:16;;;;;;;7;4.3;;;;;;;10.98;88.6582;946.8909;;;;
2019/09/03 05:34:35;;;;;;;7.7;4.4;;;;;;;11.06;88.63867;946.8674;;;;
2019/09/03 05:37:09;;;;;;;6.9;4.2;;;;;;;11.04;88.22363;946.9508;;;;
2019/09/03 05:39:51;;;;;;;5.3;3.6;;;;;;;11.21;87.9043;946.9575;;;;
2019/09/03 05:42:24;;;;;;;4.6;3.7;;;;;;;11.33;87.17285;946.9451;;;;
2019/09/03 05:44:57;;;;;;;5.5;3.7;;;;;;;11.55;86.38281;946.8979;;;;
2019/09/03 05:47:43;;;;;;;5.3;3.4;;;;;;;11.73;85.62891;946.9775;;;;
2019/09/03 05:53:07;;;;;;;4.3;3.4;;;;;;;12.14;84.80371;946.9139;;;;
2019/09/03 05:55:58;;;;;;;6;3.5;;;;;;;12.24;84.75488;946.923;;;;
2019/09/03 05:58:17;;;;;;;5.6;3.6;;;;;;;12.26;84.34766;946.8764;;;;
2019/09/03 06:00:41;;;;;;;5.1;3.5;;;;;;;;;;;;;
2019/09/03 06:03:17;;;;;;;5.5;3.8;;;;;;;;;;;;;
2019/09/03 06:05:42;;;;;;;5.5;3.5;;;;;;;;;;;;;
2019/09/03 06:08:09;;;;;;;6.1;2.9;;;;;;;;;;;;;
2019/09/03 06:10:33;;;;;;;5;2.7;;;;;;;;;;;;;
2019/09/03 06:12:57;;;;;;;5.9;2.4;;;;;;;;;;;;;
2019/09/03 06:15:28;;;;;;;5.9;2.5;;;;;;;;;;;;;
2019/09/03 06:17:51;;;;;;;2.7;1.8;;;;;;;;;;;;;
2019/09/03 06:20:20;;;;;;;4.3;2.1;;;;;;;;;;;;;
2019/09/03 06:22:54;;;;;;;2.8;1.9;;;;;;;;;;;;;
2019/09/03 06:25:17;;;;;;;4.6;2;;;;;;;;;;;;;
2019/09/03 06:27:41;;;;;;;3.5;1.8;;;;;;;;;;;;;
2019/09/03 06:30:07;;;;;;;4;1.8;;;;;;;;;;;;;
2019/09/03 06:32:39;;;;;;;4.7;1.8;;;;;;;;;;;;;
2019/09/03 06:35:03;;;;;;;2.8;1.9;;;;;;;;;;;;;
2019/09/03 06:37:31;;;;;;;3.7;2.2;;;;;;;;;;;;;
2019/09/03 06:39:54;;;;;;;5;2.4;;;;;;;;;;;;;
2019/09/03 06:42:18;;;;;;;4.8;2.3;;;;;;;;;;;;;
2019/09/03 06:45:13;;;;;;;4.3;2.1;;;;;;;;;;;;;
2019/09/03 06:47:31;;;;;;;5.4;2.1;;;;;;;;;;;;;
2019/09/03 06:49:57;;;;;;;3.2;2.3;;;;;;;;;;;;;
2019/09/03 06:52:27;;;;;;;3.2;2.2;;;;;;;;;;;;;
2019/09/03 06:54:52;;;;;;;4.1;2.3;;;;;;;;;;;;;
2019/09/03 06:57:18;;;;;;;2.8;1.9;;;;;;;;;;;;;
2019/09/03 06:59:52;;;;;;;4.8;2;;;;;;;;;;;;;
2019/09/03 07:02:25;;;;;;;2.8;2.1;;;;;;;;;;;;;
2019/09/03 07:05:12;;;;;;;3.7;1.9;;;;;;;;;;;;;
2019/09/03 07:07:36;;;;;;;2.6;1.7;;;;;;;;;;;;;
2019/09/03 07:10:03;;;;;;;2.6;1.5;;;;;;;;;;;;;
2019/09/03 07:12:26;;;;;;;3.6;1.8;;;;;;;;;;;;;
2019/09/03 07:15:29;;;;;;;2.9;1.7;;;;;;;;;;;;;
2019/09/03 07:17:26;;;;;;;3.9;1.5;;;;;;;;;;;;;
2019/09/03 07:20:13;;;;;;;4.5;1.7;;;;;;;;;;;;;
2019/09/03 07:22:32;;;;;;;2.9;1.4;;;;;;;;;;;;;
2019/09/03 07:25:19;;;;;;;2.1;1.3;;;;;;;;;;;;;
2019/09/03 07:27:41;;;;;;;4;1.7;;;;;;;;;;;;;
2019/09/03 07:30:05;;;;;;;2;1.4;;;;;;;;;;;;;
2019/09/03 07:32:25;;;;;;;2.7;1.2;;;;;;;;;;;;;
2019/09/03 07:34:50;;;;;;;2.1;1.4;;;;;;;;;;;;;
2019/09/03 07:37:18;;;;;;;6.8;1.8;;;;;;;;;;;;;
2019/09/03 07:39:42;;;;;;;4;1.4;;;;;;;;;;;;;
2019/09/03 07:42:07;;;;;;;3.3;1.2;;;;;;;;;;;;;
2019/09/03 07:44:31;;;;;;;2.2;1.2;;;;;;;;;;;;;
2019/09/03 07:46:59;;;;;;;1.7;1.1;;;;;;;;;;;;;
2019/09/03 07:49:23;;;;;;;3;1.3;;;;;;;;;;;;;
2019/09/03 07:51:48;;;;;;;3.3;1.1;;;;;;;;;;;;;
2019/09/03 07:54:12;;;;;;;3.3;1.2;;;;;;;;;;;;;
2019/09/03 07:56:38;;;;;;;4.7;1.2;;;;;;;;;;;;;
2019/09/03 07:59:04;;;;;;;1.9;1.2;;;;;;;;;;;;;
2019/09/03 08:01:29;;;;;;;3;1.2;;;;;;;;;;;;;
2019/09/03 08:03:55;;;;;;;3.2;1.2;;;;;;;;;;;;;
2019/09/03 08:06:24;;;;;;;3;1.1;;;;;;;;;;;;;
2019/09/03 08:08:49;;;;;;;2.3;1.1;;;;;;;;;;;;;
2019/09/03 08:11:17;;;;;;;2;1.1;;;;;;;;;;;;;
2019/09/03 08:13:42;;;;;;;2.2;1.1;;;;;;;;;;;;;
2019/09/03 08:16:10;;;;;;;2.5;1;;;;;;;;;;;;;
2019/09/03 08:18:36;;;;;;;2.3;1.2;;;;;;;;;;;;;
2019/09/03 08:21:01;;;;;;;2.5;1.2;;;;;;;;;;;;;
2019/09/03 08:23:30;;;;;;;5.1;1.3;;;;;;;;;;;;;
2019/09/03 08:25:53;;;;;;;2.4;1.2;;;;;;;;;;;;;
2019/09/03 08:28:18;;;;;;;3;1.3;;;;;;;;;;;;;
2019/09/03 08:30:42;;;;;;;2.9;1.3;;;;;;;;;;;;;
2019/09/03 08:33:07;;;;;;;2.4;1.1;;;;;;;;;;;;;
2019/09/03 08:35:37;;;;;;;2.4;1;;;;;;;;;;;;;
2019/09/03 08:38:01;;;;;;;2.5;1;;;;;;;;;;;;;
2019/09/03 08:40:25;;;;;;;1.7;1;;;;;;;;;;;;;
2019/09/03 08:42:57;;;;;;;3.6;1.2;;;;;;;;;;;;;
2019/09/03 08:45:21;;;;;;;2.5;1.3;;;;;;;;;;;;;
2019/09/03 08:47:45;;;;;;;3.3;1.2;;;;;;;;;;;;;
2019/09/03 08:50:11;;;;;;;2.5;1.3;;;;;;;;;;;;;
2019/09/03 08:52:44;;;;;;;2.9;1.3;;;;;;;;;;;;;
2019/09/03 08:55:03;;;;;;;3.6;1.4;;;;;;;;;;;;;
2019/09/03 08:57:30;;;;;;;4.9;1.5;;;;;;;;;;;;;
2019/09/03 08:59:53;;;;;;;3.8;1.3;;;;;;;;;;;;;
2019/09/03 09:02:47;;;;;;;3.8;1.3;;;;;;;;;;;;;
2019/09/03 09:04:59;;;;;;;4.3;1.4;;;;;;;;;;;;;
2019/09/03 09:07:25;;;;;;;4.8;1.4;;;;;;;;;;;;;
2019/09/03 09:09:52;;;;;;;2.7;1.4;;;;;;;;;;;;;
2019/09/03 09:12:16;;;;;;;5.5;1.4;;;;;;;;;;;;;
2019/09/03 09:14:42;;;;;;;3.5;1.5;;;;;;;;;;;;;
2019/09/03 09:17:08;;;;;;;3.6;1.4;;;;;;;;;;;;;
2019/09/03 09:19:34;;;;;;;3.1;1.6;;;;;;;;;;;;;
2019/09/03 09:21:59;;;;;;;3.1;1.5;;;;;;;;;;;;;
2019/09/03 09:24:28;;;;;;;2.9;1.5;;;;;;;;;;;;;
2019/09/03 09:26:53;;;;;;;2.5;1.3;;;;;;;;;;;;;
2019/09/03 09:29:17;;;;;;;2.9;1.5;;;;;;;;;;;;;
2019/09/03 09:31:44;;;;;;;3.8;1.5;;;;;;;;;;;;;
2019/09/03 09:34:09;;;;;;;4.4;1.7;;;;;;;;;;;;;
2019/09/03 09:36:36;;;;;;;3.3;1.6;;;;;;;;;;;;;
2019/09/03 09:38:59;;;;;;;4.6;1.7;;;;;;;;;;;;;
2019/09/03 09:41:27;;;;;;;3.6;1.6;;;;;;;;;;;;;
2019/09/03 09:43:50;;;;;;;4.5;2;;;;;;;;;;;;;
2019/09/03 09:46:20;;;;;;;5.6;1.9;;;;;;;;;;;;;
2019/09/03 09:48:46;;;;;;;5.8;1.9;;;;;;;;;;;;;
2019/09/03 09:51:12;;;;;;;6.1;2;;;;;;;;;;;;;
2019/09/03 09:53:33;;;;;;;4.3;1.8;;;;;;;;;;;;;
2019/09/03 09:55:57;;;;;;;5.9;1.9;;;;;;;;;;;;;
2019/09/03 09:58:27;;;;;;;4.8;1.8;;;;;;;;;;;;;
2019/09/03 10:00:49;;;;;;;3.6;1.6;;;;;;;;;;;;;
2019/09/03 10:03:15;;;;;;;5.6;1.8;;;;;;;;;;;;;
2019/09/03 10:05:39;;;;;;;4;1.8;;;;;;;;;;;;;
2019/09/03 10:08:07;;;;;;;3.9;1.7;;;;;;;;;;;;;
2019/09/03 10:10:31;;;;;;;5.9;2.1;;;;;;;;;;;;;
2019/09/03 10:13:07;;;;;;;4.1;1.9;;;;;;;;;;;;;
2019/09/03 10:15:27;;;;;;;3.4;1.7;;;;;;;;;;;;;
2019/09/03 10:17:48;;;;;;;2.8;1.6;;;;;;;;;;;;;
2019/09/03 10:20:14;;;;;;;3.7;1.7;;;;;;;;;;;;;
2019/09/03 10:22:39;;;;;;;5;1.8;;;;;;;;;;;;;
2019/09/03 10:25:06;;;;;;;4.2;1.7;;;;;;;;;;;;;
2019/09/03 10:28:25;;;;;;;3.8;1.6;;;;;;;;;;;;;
2019/09/03 10:29:54;;;;;;;2.9;1.6;;;;;;;;;;;;;
2019/09/03 10:32:20;;;;;;;4;1.8;;;;;;;;;;;;;
2019/09/03 10:34:45;;;;;;;3.8;1.7;;;;;;;;;;;;;
2019/09/03 10:37:23;;;;;;;4.6;1.7;;;;;;;;;;;;;
2019/09/03 10:39:38;;;;;;;3.9;1.5;;;;;;;;;;;;;
2019/09/03 10:42:10;;;;;;;5.2;1.7;;;;;;;;;;;;;
2019/09/03 10:44:41;;;;;;;5.7;1.9;;;;;;;;;;;;;
2019/09/03 10:47:30;;;;;;;3.9;1.7;;;;;;;;;;;;;
2019/09/03 10:50:15;;;;;;;5.2;1.9;;;;;;;;;;;;;
2019/09/03 10:52:39;;;;;;;6.1;1.8;;;;;;;;;;;;;
2019/09/03 10:55:21;;;;;;;6.4;1.9;;;;;;;;;;;;;
2019/09/03 10:57:42;;;;;;;4.8;1.7;;;;;;;;;;;;;
2019/09/03 11:00:09;;;;;;;6.7;2.1;;;;;;;;;;;;;
2019/09/03 11:02:33;;;;;;;5.3;2.1;;;;;;;;;;;;;
2019/09/03 11:05:01;;;;;;;7.4;3.7;;;;;;;;;;;;;
2019/09/03 11:07:28;;;;;;;21.7;10.4;;;;;;;;;;;;;
2019/09/03 11:09:52;;;;;;;9.7;4.2;;;;;;;;;;;;;
2019/09/03 11:12:24;;;;;;;21.1;12.3;;;;;;;;;;;;;
2019/09/03 11:14:45;;;;;;;7.1;3.6;;;;;;;;;;;;;
2019/09/03 11:17:10;;;;;;;8.2;3.3;;;;;;;;;;;;;
2019/09/03 11:19:37;;;;;;;8.4;3.8;;;;;;;;;;;;;
2019/09/03 11:22:03;;;;;;;19.7;8.9;;;;;;;;;;;;;
2019/09/03 11:24:25;;;;;;;16.9;9.4;;;;;;;;;;;;;
2019/09/03 11:26:55;;;;;;;8.4;4.5;;;;;;;;;;;;;
2019/09/03 11:29:20;;;;;;;5.7;2.4;;;;;;;;;;;;;
2019/09/03 11:31:44;;;;;;;8.4;4.2;;;;;;;;;;;;;
2019/09/03 11:34:08;;;;;;;21.1;11.1;;;;;;;;;;;;;
2019/09/03 11:36:34;;;;;;;24.8;13.2;;;;;;;;;;;;;
2019/09/03 11:38:58;;;;;;;6.2;2.9;;;;;;;;;;;;;
2019/09/03 11:41:25;;;;;;;9.1;3;;;;;;;;;;;;;
2019/09/03 11:43:49;;;;;;;12;5.9;;;;;;;;;;;;;
2019/09/03 11:46:18;;;;;;;11.8;5.9;;;;;;;;;;;;;
2019/09/03 11:48:45;;;;;;;11.2;5;;;;;;;;;;;;;
2019/09/03 11:51:10;;;;;;;4.4;1.4;;;;;;;;;;;;;
2019/09/03 11:53:37;;;;;;;4.7;1.7;;;;;;;;;;;;;
2019/09/03 11:56:01;;;;;;;3.7;1.6;;;;;;;;;;;;;
2019/09/03 11:58:23;;;;;;;4.3;1.7;;;;;;;;;;;;;
2019/09/03 12:00:48;;;;;;;4;1.5;;;;;;;;;;;;;
2019/09/03 12:03:14;;;;;;;4.6;1.7;;;;;;;;;;;;;
2019/09/03 12:05:50;;;;;;;3.9;1.7;;;;;;;;;;;;;
2019/09/03 12:08:26;;;;;;;4.3;1.6;;;;;;;;;;;;;
2019/09/03 12:10:38;;;;;;;3.6;1.6;;;;;;;;;;;;;
2019/09/03 12:13:12;;;;;;;3.5;1.7;;;;;;;;;;;;;
2019/09/03 12:15:33;;;;;;;3.2;1.5;;;;;;;;;;;;;
2019/09/03 12:17:58;;;;;;;5;2.8;;;;;;;;;;;;;
2019/09/03 12:20:33;;;;;;;6.1;2.7;;;;;;;;;;;;;
2019/09/03 12:22:51;;;;;;;6.4;2.7;;;;;;;;;;;;;
2019/09/03 12:25:16;;;;;;;11.1;6.3;;;;;;;;;;;;;
2019/09/03 12:27:41;;;;;;;11.5;5.6;;;;;;;;;;;;;
2019/09/03 12:30:19;;;;;;;8.8;4.1;;;;;;;;;;;;;
2019/09/03 12:32:40;;;;;;;6;3.3;;;;;;;;;;;;;
2019/09/03 12:35:12;;;;;;;5;2.8;;;;;;;;;;;;;
2019/09/03 12:37:32;;;;;;;8;3.4;;;;;;;;;;;;;
2019/09/03 12:39:59;;;;;;;8.5;2.9;;;;;;;;;;;;;
2019/09/03 12:42:23;;;;;;;4;1.5;;;;;;;;;;;;;
2019/09/03 12:44:49;;;;;;;5.3;1.6;;;;;;;;;;;;;
2019/09/03 12:47:17;;;;;;;3.7;1.6;;;;;;;;;;;;;
2019/09/03 12:49:39;;;;;;;5.3;2;;;;;;;;;;;;;
2019/09/03 12:52:06;;;;;;;3.5;1.6;;;;;;;;;;;;;
2019/09/03 12:54:29;;;;;;;4.2;1.5;;;;;;;;;;;;;
2019/09/03 12:57:01;;;;;;;3.7;1.6;;;;;;;;;;;;;
2019/09/03 12:59:31;;;;;;;4.1;1.7;;;;;;;;;;;;;
2019/09/03 13:02:05;;;;;;;5.2;1.7;;;;;;;;;;;;;
2019/09/03 13:04:23;;;;;;;3.3;1.7;;;;;;;;;;;;;
2019/09/03 13:06:51;;;;;;;3.3;1.7;;;;;;;;;;;;;
2019/09/03 13:09:17;;;;;;;4.5;1.9;;;;;;;;;;;;;
2019/09/03 13:11:41;;;;;;;3.8;1.7;;;;;;;;;;;;;
2019/09/03 13:14:10;;;;;;;3.9;1.4;;;;;;;;;;;;;
2019/09/03 13:16:33;;;;;;;4.6;1.8;;;;;;;;;;;;;
2019/09/03 13:18:57;;;;;;;4.6;1.8;;;;;;;;;;;;;
2019/09/03 13:21:29;;;;;;;3.6;1.7;;;;;;;;;;;;;
2019/09/03 13:23:52;;;;;;;4.7;1.8;;;;;;;;;;;;;
2019/09/03 13:26:29;;;;;;;4;1.7;;;;;;;;;;;;;
2019/09/03 13:28:43;;;;;;;3.7;1.9;;;;;;;;;;;;;
2019/09/03 13:31:14;;;;;;;4.6;1.7;;;;;;;;;;;;;
2019/09/03 13:33:44;;;;;;;4.8;2;;;;;;;;;;;;;
2019/09/03 13:36:08;;;;;;;3.6;1.5;;;;;;;;;;;;;
2019/09/03 13:38:42;;;;;;;4.4;1.7;;;;;;;;;;;;;
2019/09/03 13:41:03;;;;;;;2.8;1.7;;;;;;;;;;;;;
2019/09/03 13:43:28;;;;;;;4.7;1.8;;;;;;;;;;;;;
2019/09/03 13:45:59;;;;;;;8;1.7;;;;;;;;;;;;;
2019/09/03 13:48:24;;;;;;;4.4;2;;;;;;;;;;;;;
2019/09/03 13:50:54;;;;;;;4.5;1.7;;;;;;;;;;;;;
2019/09/03 13:53:17;;;;;;;3.6;1.7;;;;;;;;;;;;;
2019/09/03 13:55:47;;;;;;;11.9;5.1;;;;;;;;;;;;;
2019/09/03 13:58:09;;;;;;;3.9;1.6;;;;;;;;;;;;;
2019/09/03 14:00:36;;;;;;;3;1.7;;;;;;;;;;;;;
2019/09/03 14:03:19;;;;;;;4.6;2;;;;;;;;;;;;;
2019/09/03 14:05:31;;;;;;;4.5;1.7;;;;;;;;;;;;;
2019/09/03 14:07:55;;;;;;;5.3;1.8;;;;;;;;;;;;;
2019/09/03 14:10:25;;;;;;;8.3;4.3;;;;;;;;;;;;;
2019/09/03 14:12:49;;;;;;;3.1;1.6;;;;;;;;;;;;;
2019/09/03 14:15:20;;;;;;;3.6;1.8;;;;;;;;;;;;;
2019/09/03 14:17:41;;;;;;;5;1.7;;;;;;;;;;;;;
2019/09/03 14:20:07;;;;;;;4.7;1.9;;;;;;;;;;;;;
2019/09/03 14:22:30;;;;;;;4.1;1.8;;;;;;;;;;;;;
2019/09/03 14:25:01;;;;;;;3.9;1.7;;;;;;;;;;;;;
2019/09/03 14:27:27;;;;;;;3;1.7;;;;;;;;;;;;;
2019/09/03 14:30:15;;;;;;;5.2;2;;;;;;;;;;;;;
2019/09/03 14:32:29;;;;;;;2.9;1.6;;;;;;;;;;;;;
2019/09/03 14:34:51;;;;;;;3.6;1.7;;;;;;;;;;;;;
2019/09/03 14:37:16;;;;;;;5.3;1.8;;;;;;;;;;;;;
2019/09/03 14:39:43;;;;;;;6.4;2.3;;;;;;;;;;;;;
2019/09/03 14:42:09;;;;;;;4.8;2.2;;;;;;;;;;;;;
2019/09/03 14:44:33;;;;;;;4.9;1.8;;;;;;;;;;;;;
2019/09/03 14:46:56;;;;;;;5.5;1.9;;;;;;;;;;;;;
2019/09/03 14:49:22;;;;;;;3.3;1.8;;;;;;;;;;;;;
2019/09/03 14:51:51;;;;;;;4.9;2;;;;;;;;;;;;;
2019/09/03 14:54:14;;;;;;;4.7;1.8;;;;;;;;;;;;;
2019/09/03 14:56:39;;;;;;;4.4;1.9;;;;;;;;;;;;;
2019/09/03 14:59:20;;;;;;;4.9;2.1;;;;;;;;;;;;;
2019/09/03 15:01:46;;;;;;;3.5;1.7;;;;;;;;;;;;;
2019/09/03 15:04:16;;;;;;;6.3;2.1;;;;;;;;;;;;;
2019/09/03 15:06:41;;;;;;;4.8;1.8;;;;;;;;;;;;;
2019/09/03 15:09:07;;;;;;;3.5;1.8;;;;;;;;;;;;;
2019/09/03 15:11:35;;;;;;;4.7;1.8;;;;;;;;;;;;;
2019/09/03 15:14:05;;;;;;;3.5;1.8;;;;;;;;;;;;;
2019/09/03 15:16:29;;;;;;;4.6;1.8;;;;;;;;;;;;;
2019/09/03 15:19:03;;;;;;;5.4;1.9;;;;;;;;;;;;;
2019/09/03 15:21:40;;;;;;;4.7;2;;;;;;;;;;;;;
2019/09/03 15:24:00;;;;;;;4.9;2;;;;;;;;;;;;;
2019/09/03 15:26:29;;;;;;;3.6;1.7;;;;;;;;;;;;;
2019/09/03 15:29:17;;;;;;;3.6;1.7;;;;;;;;;;;;;
2019/09/03 15:31:44;;;;;;;3.1;1.9;;;;;;;;;;;;;
2019/09/03 15:34:08;;;;;;;4.6;2.1;;;;;;;;;;;;;
2019/09/03 15:36:31;;;;;;;4.6;1.9;;;;;;;;;;;;;
2019/09/03 15:38:59;;;;;;;4.1;2;;;;;;;;;;;;;
2019/09/03 15:41:29;;;;;;;3.4;1.8;;;;;;;;;;;;;
2019/09/03 15:44:22;;;;;;;4.9;1.8;;;;;;;;;;;;;
2019/09/03 15:46:43;;;;;;;6.8;2.1;;;;;;;;;;;;;
2019/09/03 15:49:06;;;;;;;3.1;1.8;;;;;;;;;;;;;
2019/09/03 15:51:31;;;;;;;5.4;2.2;;;;;;;;;;;;;
2019/09/03 15:54:00;;;;;;;4.5;2;;;;;;;;;;;;;
2019/09/03 15:56:36;;;;;;;3.2;1.8;;;;;;;;;;;;;
2019/09/03 15:58:55;;;;;;;5.8;2;;;;;;;;;;;;;
2019/09/03 16:01:33;;;;;;;4.1;1.8;;;;;;;;;;;;;
2019/09/03 16:03:57;;;;;;;3.1;1.8;;;;;;;;;;;;;
2019/09/03 16:06:23;;;;;;;5.3;2.1;;;;;;;;;;;;;
2019/09/03 16:08:42;;;;;;;6.9;3.9;;;;;;;;;;;;;
2019/09/03 16:11:08;;;;;;;3.9;1.9;;;;;;;;;;;;;
2019/09/03 16:13:36;;;;;;;7.1;2.9;;;;;;;;;;;;;
2019/09/03 16:16:02;;;;;;;5.6;2;;;;;;;;;;;;;
2019/09/03 16:18:33;;;;;;;5.5;2.4;;;;;;;;;;;;;
2019/09/03 16:21:06;;;;;;;4.2;2.6;;;;;;;;;;;;;
2019/09/03 16:23:48;;;;;;;4.4;2.5;;;;;;;;;;;;;
2019/09/03 16:26:02;;;;;;;4.9;3.2;;;;;;;;;;;;;
2019/09/03 16:28:34;;;;;;;7.1;2.3;;;;;;;;;;;;;
2019/09/03 16:31:02;;;;;;;3.6;2;;;;;;;;;;;;;
2019/09/03 16:33:20;;;;;;;3.8;1.9;;;;;;;;;;;;;
2019/09/03 16:35:44;;;;;;;4.3;2;;;;;;;;;;;;;
2019/09/03 16:38:17;;;;;;;6.1;2.4;;;;;;;;;;;;;
2019/09/03 16:40:48;;;;;;;3.9;2.1;;;;;;;;;;;;;
2019/09/03 16:43:12;;;;;;;6.8;2.1;;;;;;;;;;;;;
2019/09/03 16:45:35;;;;;;;3.9;1.8;;;;;;;;;;;;;
2019/09/03 16:48:07;;;;;;;4.5;2;;;;;;;;;;;;;
2019/09/03 16:50:41;;;;;;;3.9;2.2;;;;;;;;;;;;;
2019/09/03 16:53:15;;;;;;;5.3;2.4;;;;;;;;;;;;;
2019/09/03 16:55:43;;;;;;;4.6;2.3;;;;;;;;;;;;;
2019/09/03 16:58:11;;;;;;;9.2;4.6;;;;;;;;;;;;;
2019/09/03 17:00:46;;;;;;;3.7;1.9;;;;;;;;;;;;;
2019/09/03 17:03:12;;;;;;;5;2.1;;;;;;;;;;;;;
2019/09/03 17:05:26;;;;;;;6.7;2.1;;;;;;;;;;;;;
2019/09/03 17:07:52;;;;;;;5.1;2.3;;;;;;;;;;;;;
2019/09/03 17:10:20;;;;;;;5.2;2.5;;;;;;;;;;;;;
2019/09/03 17:12:47;;;;;;;4.5;2.4;;;;;;;;;;;;;
2019/09/03 17:15:11;;;;;;;3.8;2.3;;;;;;;;;;;;;
2019/09/03 17:17:42;;;;;;;6.6;2.4;;;;;;;;;;;;;
2019/09/03 17:20:06;;;;;;;5.3;2.6;;;;;;;;;;;;;
2019/09/03 17:22:34;;;;;;;7.2;2.9;;;;;;;;;;;;;
2019/09/03 17:24:57;;;;;;;6.9;2.6;;;;;;;;;;;;;
2019/09/03 17:27:30;;;;;;;5.8;2.7;;;;;;;;;;;;;
2019/09/03 17:29:57;;;;;;;6.4;2.9;;;;;;;;;;;;;
2019/09/03 17:32:20;;;;;;;7.1;2.7;;;;;;;;;;;;;
2019/09/03 17:35:01;;;;;;;7.5;3;;;;;;;;;;;;;
2019/09/03 17:37:36;;;;;;;5.2;2.8;;;;;;;;;;;;;
2019/09/03 17:39:59;;;;;;;5.1;2.5;;;;;;;;;;;;;
2019/09/03 17:42:27;;;;;;;6.7;2.8;;;;;;;;;;;;;
2019/09/03 17:44:51;;;;;;;4.6;2.9;;;;;;;;;;;;;
2019/09/03 17:47:17;;;;;;;7.3;2.8;;;;;;;;;;;;;
2019/09/03 17:49:45;;;;;;;4.9;2.8;;;;;;;;;;;;;
2019/09/03 17:52:11;;;;;;;6.2;3;;;;;;;;;;;;;
2019/09/03 17:55:15;;;;;;;7.1;2.9;;;;;;;;;;;;;
2019/09/03 17:57:27;;;;;;;7.2;3.6;;;;;;;;;;;;;
2019/09/03 17:59:50;;;;;;;6.5;3.8;;;;;;;;;;;;;
2019/09/03 18:02:19;;;;;;;7.2;3.4;;;;;;;;;;;;;
2019/09/03 18:04:46;;;;;;;9.9;3.1;;;;;;;;;;;;;
2019/09/03 18:07:06;;;;;;;4.5;2.5;;;;;;;;;;;;;
2019/09/03 18:09:36;;;;;;;6.6;4;;;;;;;;;;;;;
2019/09/03 18:12:00;;;;;;;7.8;3.7;;;;;;;;;;;;;
2019/09/03 18:14:24;;;;;;;4.6;2.9;;;;;;;;;;;;;
2019/09/03 18:16:48;;;;;;;6.5;3.3;;;;;;;;;;;;;
2019/09/03 18:19:19;;;;;;;6.4;3.1;;;;;;;;;;;;;
2019/09/03 18:21:44;;;;;;;8.1;2.9;;;;;;;;;;;;;
2019/09/03 18:24:15;;;;;;;9.1;3.8;;;;;;;;;;;;;
2019/09/03 18:26:38;;;;;;;8;3.6;;;;;;;;;;;;;
2019/09/03 18:29:04;;;;;;;6.4;3.2;;;;;;;;;;;;;
2019/09/03 18:31:34;;;;;;;6.9;3;;;;;;;;;;;;;
2019/09/03 18:33:59;;;;;;;8.3;3.9;;;;;;;;;;;;;
2019/09/03 18:36:31;;;;;;;8.5;4.6;;;;;;;;;;;;;
2019/09/03 18:39:04;;;;;;;6.8;3.6;;;;;;;;;;;;;
2019/09/03 18:41:28;;;;;;;6.6;3.2;;;;;;;;;;;;;
2019/09/03 18:44:01;;;;;;;7.1;3.4;;;;;;;;;;;;;
2019/09/03 18:46:23;;;;;;;10.4;3.5;;;;;;;;;;;;;
2019/09/03 18:48:43;;;;;;;5.8;3.5;;;;;;;;;;;;;
2019/09/03 18:51:08;;;;;;;6.3;3.6;;;;;;;;;;;;;
2019/09/03 18:53:38;;;;;;;7.2;3.5;;;;;;;;;;;;;
2019/09/03 18:56:14;;;;;;;8.2;3.5;;;;;;;;;;;;;
2019/09/03 18:58:34;;;;;;;5.9;3.2;;;;;;;;;;;;;
2019/09/03 19:01:00;;;;;;;4.8;3.1;;;;;;;;;;;;;
2019/09/03 19:03:25;;;;;;;6.1;3.4;;;;;;;;;;;;;
2019/09/03 19:05:51;;;;;;;6.6;3.3;;;;;;;;;;;;;
2019/09/03 19:10:48;;;;;;;9.5;3.5;;;;;;;;;;;;;
2019/09/03 19:13:12;;;;;;;9.9;3.6;;;;;;;;;;;;;
2019/09/03 19:15:46;;;;;;;5.5;3.1;;;;;;;;;;;;;
2019/09/03 19:18:18;;;;;;;6.9;3.4;;;;;;;;;;;;;
2019/09/03 19:20:44;;;;;;;7.9;3;;;;;;;;;;;;;
2019/09/03 19:23:17;;;;;;;6.3;3.3;;;;;;;;;;;;;
2019/09/03 19:25:47;;;;;;;5.4;3.5;;;;;;;;;;;;;
2019/09/03 19:28:14;;;;;;;7.3;3.7;;;;;;;;;;;;;
2019/09/03 19:30:42;;;;;;;8.3;4.2;;;;;;;;;;;;;
2019/09/03 19:33:05;;;;;;;5.9;3.7;;;;;;;;;;;;;
2019/09/03 19:35:29;;;;;;;10.6;4;;;;;;;;;;;;;
2019/09/03 19:37:59;;;;;;;6.2;3.8;;;;;;;;;;;;;
2019/09/03 19:40:23;;;;;;;6.3;3.9;;;;;;;;;;;;;
2019/09/03 19:42:52;;;;;;;7.4;4.4;;;;;;;;;;;;;
2019/09/03 19:45:21;;;;;;;6.3;4.7;;;;;;;;;;;;;
2019/09/03 19:47:40;;;;;;;7.4;4.5;;;;;;;;;;;;;
2019/09/03 19:50:14;;;;;;;6.8;3.9;;;;;;;;;;;;;
2019/09/03 19:55:30;;;;;;;6.4;3.5;;;;;;;;;;;;;
2019/09/03 19:58:09;;;;;;;5.4;3.3;;;;;;;;;;;;;
2019/09/03 20:00:28;;;;;;;10.8;4.3;;;;;;;;;;;;;
2019/09/03 20:02:47;;;;;;;6.7;3.5;;;;;;;;;;;;;
2019/09/03 20:05:10;;;;;;;6.3;3.4;;;;;;;;;;;;;
2019/09/03 20:07:36;;;;;;;5.7;3.3;;;;;;;;;;;;;
2019/09/03 20:09:59;;;;;;;6.7;3.7;;;;;;;;;;;;;
2019/09/03 20:12:32;;;;;;;6.1;3.8;;;;;;;;;;;;;
2019/09/03 20:14:52;;;;;;;6.5;3.9;;;;;;;;;;;;;
2019/09/03 20:17:21;;;;;;;5.7;3.7;;;;;;;;;;;;;
2019/09/03 20:19:49;;;;;;;6.7;3.4;;;;;;;;;;;;;